Lake Hughes, CA

4:04 PM PDT on March 26, 2015 (GMT -0700)
Palmdale Af Plant 42 | | Change Station
CLOSE
Current Station
Airport
Location: Palmdale,
Elevation: 2543 ft
Nearby Weather Stations

Elev 2543 ft 34.63 °N, 118.08 °W | Updated 11 minutes ago

Clear
Clear
81 °F
Feels Like 81 °F
N
9
Wind Variable Wind from East

Today
High -- | Low -- °F
--% Chance of Precip.
Yesterday
High -- | Low -- °F
Precip. -- in
6:49 AM 7:10 PM
Waxing Crescent, 46% visible
Pressure 30.09 in
Visibility 10.0 miles
Clouds Clear
Dew Point 24 °F
Humidity 12%
Rainfall 0.00 in
Snow Depth Not available.
UV 5 out of 12
Pollen 9.80 out of 12
Air Quality Not available.
Flu Activity Not available.
METAR KPMD 262253Z AUTO 08008KT 10SM CLR 27/M04 A3014 RMK AO2 SLP188 T02721044

More Conditions Fewer Conditions

Pressure 30.09 in
Visibility 10.0 miles
Clouds Clear
Dew Point 24 °F
Humidity 12%
Rainfall 0.00 in
Snow Depth Not available.
UV 5 out of 12
Pollen 9.80 out of 12
Air Quality Not available.
Flu Activity Not available.
METAR KPMD 262253Z AUTO 08008KT 10SM CLR 27/M04 A3014 RMK AO2 SLP188 T02721044

More Conditions Fewer Conditions

10-Day Weather Forecast

Almanac

Astronomy

Mar. 26, 2015 Rise Set
Actual Time
Civil Twilight
Nautical Twilight
Astronomical Twilight
Moon
Length of Visible Light
Length of Day
Tomorrow will be .
, % of the Moon is Illuminated

Today's Extremes

State Highs State Lows

Community

WunderPhotos

Upload Photos

1,808,632 photos uploaded!

WunderBlogs® & News

Nearby

Air Quality

  Air Quality AQ Index Pollutant
Not available.

Snow Depth

Station Depth Elevation

Earthquake Activity

City Distance Mag. Time & Date
Minimum magnitude displayed is 2.5.

Coastal Water Temperatures

Place Temperature

Stations

Nearby Weather Stations

Station Location Temp. Windchill Dew Point Humidity Wind Precip. Elev Updated Type